Time;durP1;ratioP1;P1;durP2;ratioP2;P2;SDS_P1;SDS_P2;PMS_P1;PMS_P2;Temp;Humidity;BMP_temperature;BMP_pressure;BME280_temperature;BME280_humidity;BME280_pressure;Samples;Min_cycle;Max_cycle;Signal;HPM_P1;HPM_P2
2023/07/19 00:01:43;;;;;;;1.50;1.40;;;28.60;47.00;;;;;;5052333;28;20492;-79
2023/07/19 00:04:11;;;;;;;1.63;1.53;;;28.60;47.00;;;;;;5052197;28;20449;-78
2023/07/19 00:06:39;;;;;;;1.80;1.53;;;28.60;46.90;;;;;;5051855;28;20413;-77
2023/07/19 00:09:07;;;;;;;1.60;1.50;;;28.60;47.10;;;;;;5049666;28;20544;-78
2023/07/19 00:11:34;;;;;;;2.80;2.60;;;28.60;47.10;;;;;;5051030;28;20474;-77
2023/07/19 00:14:05;;;;;;;4.10;3.80;;;28.60;47.20;;;;;;5051576;28;20456;-77
2023/07/19 00:16:34;;;;;;;6.80;4.33;;;28.50;47.10;;;;;;5048938;28;20521;-78
2023/07/19 00:19:03;;;;;;;4.80;4.33;;;28.50;47.10;;;;;;5051380;28;20453;-77
2023/07/19 00:21:34;;;;;;;5.00;4.60;;;28.50;47.10;;;;;;5049813;28;20425;-77
2023/07/19 00:24:02;;;;;;;5.30;4.50;;;28.50;47.20;;;;;;5051041;28;20499;-79
2023/07/19 00:26:30;;;;;;;4.90;4.10;;;28.50;47.30;;;;;;5049458;28;20464;-77
2023/07/19 00:28:58;;;;;;;6.17;5.57;;;28.50;47.10;;;;;;5049205;28;20564;-77
2023/07/19 00:31:27;;;;;;;5.27;4.77;;;28.50;47.20;;;;;;5049257;28;20512;-77
2023/07/19 00:33:55;;;;;;;6.37;4.83;;;28.50;47.10;;;;;;5047904;28;20431;-77
2023/07/19 00:36:24;;;;;;;6.03;5.30;;;28.50;47.30;;;;;;5049083;28;20417;-79
2023/07/19 00:38:52;;;;;;;5.40;5.00;;;28.50;47.30;;;;;;5049481;28;20509;-77
2023/07/19 00:41:20;;;;;;;5.33;4.83;;;28.50;47.40;;;;;;5042395;28;20410;-77
2023/07/19 00:43:48;;;;;;;5.33;4.83;;;28.50;47.40;;;;;;5042673;28;20451;-77
2023/07/19 00:46:16;;;;;;;5.33;4.77;;;28.50;47.40;;;;;;5051003;28;20441;-78
2023/07/19 00:48:44;;;;;;;5.90;4.20;;;28.40;47.40;;;;;;5050683;28;20465;-77
2023/07/19 00:51:12;;;;;;;7.53;5.10;;;28.40;47.40;;;;;;5048752;28;20516;-77
2023/07/19 00:53:41;;;;;;;6.33;4.67;;;28.40;47.40;;;;;;5048748;28;20433;-78
2023/07/19 00:56:10;;;;;;;5.43;4.93;;;28.40;47.50;;;;;;5050094;28;20425;-77
2023/07/19 00:58:38;;;;;;;5.70;4.93;;;28.40;47.50;;;;;;5050792;28;20495;-77
2023/07/19 01:01:06;;;;;;;4.70;4.30;;;28.40;47.50;;;;;;5050596;28;20481;-78
2023/07/19 01:03:34;;;;;;;4.43;4.03;;;28.30;47.40;;;;;;5050852;28;20549;-79
2023/07/19 01:06:03;;;;;;;6.97;4.27;;;28.40;47.60;;;;;;5051788;28;20525;-79
2023/07/19 01:08:31;;;;;;;6.33;4.10;;;28.40;47.60;;;;;;5048725;28;20901;-79
2023/07/19 01:11:01;;;;;;;3.90;3.60;;;28.40;47.60;;;;;;5050760;28;20421;-78
2023/07/19 01:13:29;;;;;;;3.53;3.03;;;28.40;47.60;;;;;;5049824;28;20447;-79
2023/07/19 01:15:57;;;;;;;3.97;3.63;;;28.40;47.60;;;;;;5051067;28;20425;-79
2023/07/19 01:18:25;;;;;;;3.70;3.40;;;28.30;47.50;;;;;;5050571;28;20445;-79
2023/07/19 01:20:53;;;;;;;3.90;3.47;;;28.30;47.70;;;;;;5050546;28;20467;-79
2023/07/19 01:27:14;;;;;;;3.50;3.23;;;28.30;47.60;;;;;;5049357;28;20514;-79
2023/07/19 01:29:50;;;;;;;3.33;3.13;;;28.20;47.80;;;;;;5049856;28;20420;-79
2023/07/19 01:32:18;;;;;;;3.20;3.00;;;28.20;47.80;;;;;;5050802;28;20454;-79
2023/07/19 01:34:46;;;;;;;2.67;2.57;;;28.20;47.90;;;;;;5050617;28;20409;-78
2023/07/19 01:37:14;;;;;;;3.23;3.03;;;28.20;47.70;;;;;;5050645;28;20410;-79
2023/07/19 01:39:43;;;;;;;2.93;2.73;;;28.30;47.90;;;;;;5050190;28;20516;-79
2023/07/19 01:42:12;;;;;;;2.90;2.67;;;28.20;47.80;;;;;;5050224;28;20437;-79
2023/07/19 01:44:41;;;;;;;4.73;2.70;;;28.20;47.80;;;;;;5048458;28;20449;-79
2023/07/19 01:47:09;;;;;;;2.87;2.67;;;28.20;48.00;;;;;;5044563;28;20968;-79
2023/07/19 01:49:38;;;;;;;2.37;2.27;;;28.20;47.90;;;;;;5030641;28;20470;-79
2023/07/19 01:52:07;;;;;;;4.23;2.73;;;28.20;48.00;;;;;;5031067;28;20447;-79
2023/07/19 01:54:35;;;;;;;2.50;2.40;;;28.20;48.00;;;;;;5039514;28;20434;-79
2023/07/19 01:57:04;;;;;;;2.23;2.13;;;28.20;48.00;;;;;;5037577;28;20514;-79
2023/07/19 01:59:32;;;;;;;5.30;2.50;;;28.20;48.00;;;;;;5030209;28;20467;-79
2023/07/19 02:02:02;;;;;;;2.93;2.60;;;28.20;47.90;;;;;;5037356;28;20512;-79
2023/07/19 02:04:30;;;;;;;2.70;2.40;;;28.20;47.90;;;;;;5050350;28;20556;-79
2023/07/19 02:06:58;;;;;;;2.53;2.33;;;28.10;48.00;;;;;;5053577;28;20443;-78
2023/07/19 02:09:26;;;;;;;2.20;2.10;;;28.10;47.80;;;;;;5054131;28;20523;-78
2023/07/19 02:11:54;;;;;;;1.77;1.63;;;28.10;47.90;;;;;;5053568;28;20556;-78
2023/07/19 02:14:22;;;;;;;3.03;2.23;;;28.20;48.00;;;;;;5052617;28;20428;-79
2023/07/19 02:16:50;;;;;;;2.50;2.27;;;28.10;47.90;;;;;;5052657;28;20899;-79
2023/07/19 02:19:20;;;;;;;13.33;1.97;;;28.10;47.90;;;;;;5052730;28;20529;-80
2023/07/19 02:21:48;;;;;;;3.57;2.27;;;28.10;48.00;;;;;;5040353;28;20890;-78
2023/07/19 02:24:16;;;;;;;2.13;2.03;;;28.10;48.00;;;;;;5032870;28;20478;-79
2023/07/19 02:26:44;;;;;;;2.13;2.00;;;28.10;47.90;;;;;;5032650;28;20445;-79
2023/07/19 02:29:12;;;;;;;2.10;2.00;;;28.10;48.10;;;;;;5039329;28;20462;-79
2023/07/19 02:31:40;;;;;;;1.90;1.80;;;28.10;48.10;;;;;;5036006;28;20438;-78
2023/07/19 02:34:09;;;;;;;1.77;1.67;;;28.10;48.00;;;;;;5034106;28;20915;-79
2023/07/19 02:36:39;;;;;;;2.20;2.10;;;28.00;48.10;;;;;;5040452;28;20482;-79
2023/07/19 02:39:07;;;;;;;2.00;1.90;;;28.00;47.90;;;;;;5041285;28;20574;-79
2023/07/19 02:41:35;;;;;;;1.70;1.60;;;28.00;48.10;;;;;;5035168;28;20634;-80
2023/07/19 02:44:03;;;;;;;2.00;1.90;;;28.00;48.20;;;;;;5050315;28;20441;-79
2023/07/19 02:46:31;;;;;;;2.17;2.00;;;28.00;48.10;;;;;;5038102;28;20527;-78
2023/07/19 02:48:59;;;;;;;2.03;1.93;;;28.00;48.00;;;;;;5045904;28;21005;-79
2023/07/19 02:51:27;;;;;;;2.37;1.93;;;28.00;48.20;;;;;;5054229;28;21092;-79
2023/07/19 02:53:57;;;;;;;1.70;1.60;;;28.00;48.20;;;;;;5050260;28;20422;-79
2023/07/19 02:56:26;;;;;;;4.07;1.93;;;28.00;48.20;;;;;;5034211;28;20414;-79
2023/07/19 02:58:54;;;;;;;1.93;1.80;;;28.00;48.30;;;;;;5035170;28;20516;-79
2023/07/19 03:01:22;;;;;;;2.03;1.80;;;27.90;48.20;;;;;;5045425;28;20526;-79
2023/07/19 03:03:50;;;;;;;1.80;1.70;;;27.90;48.20;;;;;;5053177;28;20417;-79
2023/07/19 03:06:18;;;;;;;2.13;2.03;;;27.90;48.30;;;;;;5054276;28;20476;-78
2023/07/19 03:08:47;;;;;;;1.87;1.50;;;27.90;48.30;;;;;;5054606;28;20463;-79
2023/07/19 03:11:16;;;;;;;3.33;1.77;;;27.90;48.40;;;;;;5050640;28;20474;-80
2023/07/19 03:13:44;;;;;;;1.73;1.73;;;27.90;48.30;;;;;;5043141;28;20496;-79
2023/07/19 03:16:12;;;;;;;1.53;1.53;;;27.90;48.30;;;;;;5046983;28;20488;-79
2023/07/19 03:18:40;;;;;;;1.90;1.67;;;27.90;48.30;;;;;;5054215;28;20469;-79
2023/07/19 03:21:08;;;;;;;2.37;2.00;;;27.90;48.50;;;;;;5055323;28;20497;-79
2023/07/19 03:23:36;;;;;;;2.13;1.70;;;27.90;48.40;;;;;;5047850;28;20452;-80
2023/07/19 03:26:04;;;;;;;2.40;2.20;;;27.90;48.40;;;;;;5045836;28;20495;-79
2023/07/19 03:28:34;;;;;;;3.23;1.83;;;27.90;48.50;;;;;;5054985;28;20490;-80
2023/07/19 03:31:01;;;;;;;3.60;1.73;;;27.90;48.40;;;;;;5042750;28;20472;-79
2023/07/19 03:33:30;;;;;;;2.23;2.03;;;27.90;48.50;;;;;;5042773;28;20410;-80
2023/07/19 03:35:57;;;;;;;1.87;1.77;;;27.90;48.50;;;;;;5053918;28;20442;-79
2023/07/19 03:38:25;;;;;;;1.87;1.77;;;27.90;48.60;;;;;;5053985;28;20891;-78
2023/07/19 03:40:53;;;;;;;2.27;2.10;;;27.80;48.40;;;;;;5046951;28;20456;-79
2023/07/19 03:43:22;;;;;;;3.97;2.27;;;27.80;48.50;;;;;;5053640;28;20417;-79
2023/07/19 03:45:51;;;;;;;2.67;2.47;;;27.80;48.40;;;;;;5048788;28;20503;-79
2023/07/19 03:48:19;;;;;;;3.60;3.30;;;27.80;48.60;;;;;;5038788;28;20433;-79
2023/07/19 03:50:56;;;;;;;4.50;3.67;;;27.80;48.60;;;;;;5043970;28;20523;-79
2023/07/19 03:53:24;;;;;;;4.90;4.43;;;27.80;48.60;;;;;;5032070;28;20443;-81
2023/07/19 03:55:55;;;;;;;6.47;4.67;;;27.80;48.60;;;;;;5031484;28;20444;-79
2023/07/19 03:58:24;;;;;;;8.00;5.23;;;27.80;48.60;;;;;;5031033;28;20454;-79
2023/07/19 04:00:54;;;;;;;6.73;6.10;;;27.80;48.70;;;;;;5030447;28;20546;-79
2023/07/19 04:03:22;;;;;;;7.13;6.43;;;27.80;48.70;;;;;;5048513;28;20418;-78
2023/07/19 04:05:50;;;;;;;6.60;5.90;;;27.80;48.80;;;;;;5052237;28;20488;-80
2023/07/19 04:08:18;;;;;;;8.47;6.33;;;27.80;48.90;;;;;;5049414;28;20464;-79
2023/07/19 04:10:46;;;;;;;7.20;5.80;;;27.80;48.80;;;;;;5052723;28;20500;-79
2023/07/19 04:13:15;;;;;;;6.63;6.03;;;27.80;49.00;;;;;;5052571;28;20443;-79
2023/07/19 04:15:43;;;;;;;6.73;5.43;;;27.70;48.80;;;;;;5036402;28;20853;-79
2023/07/19 04:18:13;;;;;;;8.53;5.77;;;27.80;49.00;;;;;;5032070;28;20493;-79
2023/07/19 04:20:41;;;;;;;5.60;4.70;;;27.80;48.90;;;;;;5041114;28;20443;-80
2023/07/19 04:23:09;;;;;;;5.80;5.20;;;27.80;49.00;;;;;;5044825;28;20439;-79
2023/07/19 04:25:37;;;;;;;5.37;4.47;;;27.80;49.10;;;;;;5053452;28;20513;-78
2023/07/19 04:28:05;;;;;;;5.07;4.57;;;27.80;48.90;;;;;;5052138;28;20535;-79
2023/07/19 04:30:34;;;;;;;5.20;4.80;;;27.80;49.00;;;;;;5036276;28;20482;-79
2023/07/19 04:33:04;;;;;;;4.77;4.10;;;27.70;49.10;;;;;;5042905;28;20452;-79
2023/07/19 04:35:33;;;;;;;4.07;3.67;;;27.80;49.00;;;;;;5048226;28;20458;-79
2023/07/19 04:38:03;;;;;;;4.20;3.83;;;27.80;49.00;;;;;;5050416;28;20464;-79
2023/07/19 04:40:31;;;;;;;4.10;3.43;;;27.80;49.00;;;;;;5051330;28;20500;-81
2023/07/19 04:43:01;;;;;;;3.57;3.23;;;27.80;49.10;;;;;;5041231;28;20465;-79
2023/07/19 04:45:30;;;;;;;4.50;3.17;;;27.80;49.00;;;;;;5031898;28;20505;-79
2023/07/19 04:47:58;;;;;;;3.13;2.77;;;27.80;49.60;;;;;;5039989;28;20462;-79
2023/07/19 04:50:26;;;;;;;3.80;3.13;;;27.80;49.10;;;;;;5044693;28;20409;-80
2023/07/19 04:52:55;;;;;;;5.53;3.17;;;27.80;49.10;;;;;;5048200;28;20445;-79
2023/07/19 04:55:24;;;;;;;2.63;2.50;;;27.80;49.10;;;;;;5045046;28;20958;-79
2023/07/19 04:57:52;;;;;;;7.13;3.23;;;27.80;49.20;;;;;;5038700;28;20492;-79
2023/07/19 05:00:20;;;;;;;2.50;2.40;;;27.80;49.10;;;;;;5043293;28;20513;-79
2023/07/19 05:02:49;;;;;;;2.33;2.13;;;27.80;49.40;;;;;;5050614;28;20547;-79
2023/07/19 05:05:17;;;;;;;3.07;2.67;;;27.80;49.30;;;;;;5046978;28;20411;-79
2023/07/19 05:07:45;;;;;;;2.63;2.40;;;27.70;49.40;;;;;;5039698;28;20479;-78
2023/07/19 05:10:18;;;;;;;3.43;2.20;;;27.70;49.20;;;;;;5043798;28;20446;-79
2023/07/19 05:12:46;;;;;;;2.33;2.13;;;27.80;49.50;;;;;;5043576;28;20474;-79
2023/07/19 05:15:14;;;;;;;6.00;2.40;;;27.70;49.30;;;;;;5044082;28;20453;-79
2023/07/19 05:17:42;;;;;;;2.80;2.20;;;27.70;49.40;;;;;;5044974;28;20510;-79
2023/07/19 05:20:10;;;;;;;2.50;1.87;;;27.70;49.50;;;;;;5048459;28;20439;-79
2023/07/19 05:22:38;;;;;;;2.10;2.00;;;27.70;49.50;;;;;;5033051;28;20493;-79
2023/07/19 05:25:07;;;;;;;3.63;1.90;;;27.70;49.50;;;;;;5045035;28;20427;-80
2023/07/19 05:27:37;;;;;;;2.43;1.60;;;27.70;49.60;;;;;;5040517;28;20545;-79
2023/07/19 05:30:05;;;;;;;2.10;2.00;;;27.70;49.50;;;;;;5032859;28;20449;-79
2023/07/19 05:32:33;;;;;;;3.53;2.00;;;27.70;49.60;;;;;;5039433;28;20434;-79
2023/07/19 05:35:01;;;;;;;1.80;1.70;;;27.70;49.60;;;;;;5043492;28;20447;-79
2023/07/19 05:37:29;;;;;;;2.00;1.90;;;27.70;49.60;;;;;;5032476;28;20960;-79
2023/07/19 05:39:57;;;;;;;2.50;2.30;;;27.70;49.70;;;;;;5033662;28;20494;-79
2023/07/19 05:42:25;;;;;;;2.30;2.00;;;27.70;49.60;;;;;;5043795;28;20516;-79
2023/07/19 05:44:55;;;;;;;2.93;1.63;;;27.70;49.60;;;;;;5038914;28;20530;-79
2023/07/19 05:47:24;;;;;;;1.93;1.83;;;27.70;49.60;;;;;;5054663;28;20441;-79
2023/07/19 05:49:52;;;;;;;2.50;2.10;;;27.70;49.50;;;;;;5055518;28;20408;-79
2023/07/19 05:52:20;;;;;;;2.00;1.80;;;27.70;49.60;;;;;;5036379;28;20444;-79
2023/07/19 05:54:48;;;;;;;2.53;1.93;;;27.70;49.40;;;;;;5045215;28;20483;-78
2023/07/19 05:57:16;;;;;;;5.13;2.27;;;27.70;49.60;;;;;;5047688;28;20430;-78
2023/07/19 05:59:44;;;;;;;2.03;1.57;;;27.70;49.60;;;;;;5055423;28;20457;-79
2023/07/19 06:02:13;;;;;;;2.17;2.00;;;27.70;49.50;;;;;;5048347;28;20475;-80
2023/07/19 06:04:42;;;;;;;4.10;1.67;;;27.70;49.60;;;;;;5056919;28;20442;-78
2023/07/19 06:07:11;;;;;;;1.50;1.40;;;27.70;49.40;;;;;;5040423;28;20471;-78
2023/07/19 06:09:39;;;;;;;2.30;2.20;;;27.80;49.50;;;;;;5051768;28;20459;-79
2023/07/19 06:12:07;;;;;;;2.27;1.90;;;27.80;49.50;;;;;;5054607;28;20999;-78
2023/07/19 06:14:36;;;;;;;1.73;1.63;;;27.70;49.40;;;;;;5051476;28;21012;-78
2023/07/19 06:17:05;;;;;;;3.23;1.83;;;27.80;49.50;;;;;;5052372;28;20425;-78
2023/07/19 06:19:35;;;;;;;2.23;1.73;;;27.70;49.30;;;;;;5056651;28;20544;-77
2023/07/19 06:22:03;;;;;;;3.80;2.13;;;27.80;49.30;;;;;;5051412;28;20464;-79
2023/07/19 06:24:31;;;;;;;2.97;2.10;;;27.80;49.40;;;;;;5057199;28;20471;-78
2023/07/19 06:26:59;;;;;;;2.40;2.20;;;27.90;49.20;;;;;;5056722;28;20533;-79
2023/07/19 06:29:27;;;;;;;2.20;2.10;;;27.90;49.30;;;;;;5056104;28;20482;-79
2023/07/19 06:31:55;;;;;;;2.10;1.87;;;27.90;49.20;;;;;;5056070;28;20460;-81
2023/07/19 06:34:24;;;;;;;2.43;2.33;;;28.00;49.20;;;;;;5053943;28;20459;-79
2023/07/19 06:36:53;;;;;;;5.30;2.63;;;28.00;49.10;;;;;;5056310;28;20456;-79
2023/07/19 06:39:21;;;;;;;2.10;2.00;;;28.10;49.00;;;;;;5056433;28;20489;-78
2023/07/19 06:41:49;;;;;;;4.33;2.30;;;28.10;49.10;;;;;;5055787;28;20484;-78
2023/07/19 06:44:17;;;;;;;5.70;2.57;;;28.10;49.10;;;;;;5053650;28;20541;-78
2023/07/19 06:46:45;;;;;;;3.07;2.20;;;28.20;48.80;;;;;;5054458;28;20502;-79
2023/07/19 06:49:13;;;;;;;3.00;2.80;;;28.30;48.90;;;;;;5053725;28;20441;-79
2023/07/19 06:51:42;;;;;;;3.27;2.37;;;28.30;48.70;;;;;;5051388;28;20986;-80
2023/07/19 06:54:11;;;;;;;2.50;2.30;;;28.30;48.70;;;;;;5055742;28;20443;-79
2023/07/19 06:56:42;;;;;;;2.57;2.37;;;28.40;48.60;;;;;;5048312;28;20415;-79
2023/07/19 06:59:10;;;;;;;2.53;2.27;;;28.40;48.60;;;;;;5052073;28;20840;-79
2023/07/19 07:01:38;;;;;;;2.33;2.23;;;28.40;48.60;;;;;;5035543;28;20470;-79
2023/07/19 07:04:08;;;;;;;2.30;2.20;;;28.50;48.50;;;;;;5038272;28;20443;-81
2023/07/19 07:06:36;;;;;;;2.13;2.03;;;28.50;48.50;;;;;;5044087;28;20457;-80
2023/07/19 07:09:04;;;;;;;2.53;2.20;;;28.50;48.40;;;;;;5048506;28;20491;-79
2023/07/19 07:11:34;;;;;;;2.07;1.97;;;28.60;48.40;;;;;;5049444;28;20463;-79
2023/07/19 07:14:01;;;;;;;2.20;2.10;;;28.60;48.40;;;;;;5053893;28;20514;-81
2023/07/19 07:16:29;;;;;;;2.37;2.27;;;28.60;48.40;;;;;;5054761;28;20420;-77
2023/07/19 07:18:57;;;;;;;2.43;2.20;;;28.60;48.40;;;;;;5053809;28;20463;-78
2023/07/19 07:21:27;;;;;;;2.50;2.40;;;28.70;48.40;;;;;;5052945;28;20434;-82
2023/07/19 07:23:54;;;;;;;3.93;2.30;;;28.70;48.20;;;;;;5051549;28;20504;-80
2023/07/19 07:26:22;;;;;;;2.20;2.10;;;28.70;48.30;;;;;;5052223;28;20477;-80
2023/07/19 07:28:51;;;;;;;5.33;2.63;;;28.70;48.30;;;;;;5051889;28;20482;-78
2023/07/19 07:31:19;;;;;;;2.00;1.90;;;28.80;48.20;;;;;;5052391;28;20457;-80
2023/07/19 07:33:49;;;;;;;2.20;2.10;;;28.80;48.20;;;;;;5051523;28;20454;-81
2023/07/19 07:36:17;;;;;;;2.40;2.10;;;28.80;48.20;;;;;;5051395;28;20446;-79
2023/07/19 07:38:48;;;;;;;2.40;2.30;;;28.80;48.30;;;;;;5053238;28;20570;-79
2023/07/19 07:41:16;;;;;;;2.27;2.13;;;28.80;48.20;;;;;;5042819;28;20424;-76
2023/07/19 07:43:44;;;;;;;2.40;2.30;;;28.90;48.20;;;;;;5046645;28;20477;-79
2023/07/19 07:46:13;;;;;;;3.17;2.40;;;28.90;48.20;;;;;;5035536;28;20527;-79
2023/07/19 07:48:41;;;;;;;3.37;2.70;;;29.00;48.30;;;;;;5037617;28;20970;-80
2023/07/19 07:51:10;;;;;;;3.97;2.57;;;29.10;48.10;;;;;;5053003;28;20462;-79
2023/07/19 07:53:37;;;;;;;3.30;2.73;;;29.20;47.80;;;;;;5053082;28;20516;-80
2023/07/19 07:56:05;;;;;;;4.30;2.70;;;29.20;48.00;;;;;;5053785;28;20454;-78
2023/07/19 07:58:33;;;;;;;4.50;3.20;;;29.20;47.90;;;;;;5051941;28;20494;-80
2023/07/19 08:01:01;;;;;;;3.03;2.37;;;29.30;47.90;;;;;;5052494;28;20962;-80
2023/07/19 08:03:31;;;;;;;4.30;2.87;;;29.20;47.80;;;;;;5052497;28;20447;-77
2023/07/19 08:05:59;;;;;;;5.40;2.47;;;29.20;47.90;;;;;;5048678;28;20447;-78
2023/07/19 08:08:28;;;;;;;6.60;2.77;;;29.30;47.80;;;;;;5053600;28;20573;-79
2023/07/19 08:10:56;;;;;;;5.30;3.33;;;29.30;47.80;;;;;;5055188;28;20500;-76
2023/07/19 08:13:24;;;;;;;5.23;3.23;;;29.30;47.60;;;;;;5052170;28;20454;-77
2023/07/19 08:15:53;;;;;;;2.83;2.63;;;29.30;47.50;;;;;;5054246;28;20433;-77
2023/07/19 08:18:21;;;;;;;3.10;2.73;;;29.30;47.50;;;;;;5046065;28;20459;-78
2023/07/19 08:20:52;;;;;;;4.90;3.27;;;29.20;47.50;;;;;;5042957;28;20512;-76
2023/07/19 08:23:19;;;;;;;4.20;3.00;;;29.20;47.60;;;;;;5054242;28;20430;-77
2023/07/19 08:25:48;;;;;;;3.47;2.57;;;29.10;47.60;;;;;;5053337;28;20443;-76
2023/07/19 08:28:16;;;;;;;3.43;2.43;;;29.10;47.70;;;;;;5057344;28;20485;-77
2023/07/19 08:30:44;;;;;;;3.00;2.80;;;29.10;47.60;;;;;;5052496;28;20417;-81
2023/07/19 08:33:12;;;;;;;2.60;2.50;;;29.10;47.70;;;;;;5055705;28;20440;-77
2023/07/19 08:35:40;;;;;;;4.13;2.40;;;29.00;47.50;;;;;;5052533;28;20435;-79
2023/07/19 08:38:09;;;;;;;2.50;2.27;;;29.00;47.60;;;;;;5046461;28;20447;-78
2023/07/19 08:40:39;;;;;;;3.27;2.37;;;29.00;47.60;;;;;;5040078;28;20451;-79
2023/07/19 08:43:08;;;;;;;4.30;2.60;;;29.00;47.50;;;;;;5049130;28;20445;-80
2023/07/19 08:45:37;;;;;;;4.57;2.80;;;29.00;47.50;;;;;;5042350;28;20445;-79
2023/07/19 08:48:06;;;;;;;2.50;2.30;;;28.90;47.40;;;;;;5033128;28;20471;-78
2023/07/19 08:50:35;;;;;;;2.53;2.33;;;28.90;47.50;;;;;;5044767;28;20568;-79
2023/07/19 08:53:03;;;;;;;2.30;2.13;;;28.90;47.60;;;;;;5052629;28;20533;-79
2023/07/19 08:55:32;;;;;;;1.87;1.70;;;29.00;47.50;;;;;;5046517;28;20462;-79
2023/07/19 08:58:00;;;;;;;5.27;2.60;;;29.00;47.40;;;;;;5031390;28;20559;-79
2023/07/19 09:00:31;;;;;;;2.23;2.03;;;29.00;47.20;;;;;;5034193;28;20443;-79
2023/07/19 09:03:00;;;;;;;4.57;2.30;;;29.10;47.20;;;;;;5044293;28;20439;-79
2023/07/19 09:05:28;;;;;;;4.57;2.50;;;29.30;46.90;;;;;;5031396;28;20471;-78
2023/07/19 09:07:59;;;;;;;3.10;2.20;;;29.40;46.90;;;;;;5031104;28;20559;-78
2023/07/19 09:10:28;;;;;;;3.33;2.27;;;29.50;46.40;;;;;;5032013;28;20467;-78
2023/07/19 09:12:57;;;;;;;2.17;1.90;;;29.60;46.30;;;;;;5036778;28;20485;-78
2023/07/19 09:15:27;;;;;;;2.77;2.37;;;29.60;45.80;;;;;;5034163;28;20462;-78
2023/07/19 09:17:55;;;;;;;2.83;1.80;;;29.60;45.90;;;;;;5038488;28;20442;-78
2023/07/19 09:20:25;;;;;;;2.17;1.97;;;29.70;45.90;;;;;;5050607;28;20446;-78
2023/07/19 09:22:53;;;;;;;2.70;2.17;;;29.70;45.80;;;;;;5047144;28;20964;-77
2023/07/19 09:25:22;;;;;;;2.00;1.80;;;29.80;45.80;;;;;;5031853;28;20518;-78
2023/07/19 09:27:49;;;;;;;3.63;2.10;;;29.80;45.60;;;;;;5045804;28;20520;-78
2023/07/19 09:30:19;;;;;;;2.53;1.63;;;29.80;45.30;;;;;;5050563;28;20462;-78
2023/07/19 09:32:48;;;;;;;2.60;1.80;;;29.90;45.00;;;;;;5051849;28;20463;-79
2023/07/19 09:35:26;;;;;;;2.00;1.90;;;30.00;44.70;;;;;;5051221;28;20458;-78
2023/07/19 09:37:54;;;;;;;2.93;1.70;;;30.10;44.40;;;;;;5051780;28;20561;-79
2023/07/19 09:40:22;;;;;;;2.83;1.80;;;30.20;43.90;;;;;;5051620;28;20525;-77
2023/07/19 09:42:50;;;;;;;2.00;1.53;;;30.20;43.80;;;;;;5051891;28;20451;-79
2023/07/19 09:45:22;;;;;;;3.13;1.73;;;30.30;43.80;;;;;;5051345;28;20470;-77
2023/07/19 09:47:50;;;;;;;1.60;1.50;;;30.30;43.40;;;;;;5045286;28;20593;-78
2023/07/19 09:50:19;;;;;;;3.80;1.30;;;30.40;43.10;;;;;;5031127;28;20811;-79
2023/07/19 09:52:47;;;;;;;5.47;1.63;;;30.50;43.60;;;;;;5032172;28;20505;-77
2023/07/19 09:55:15;;;;;;;1.53;1.23;;;30.50;42.80;;;;;;5032229;28;20467;-79
2023/07/19 09:57:43;;;;;;;1.70;1.20;;;30.50;42.50;;;;;;5043816;28;20489;-79
2023/07/19 10:00:13;;;;;;;2.17;1.40;;;30.50;42.30;;;;;;5052221;28;20434;-78
2023/07/19 10:02:42;;;;;;;1.40;1.30;;;30.60;42.10;;;;;;5044935;28;20470;-79
2023/07/19 10:05:11;;;;;;;3.70;1.50;;;30.70;41.90;;;;;;5047970;28;21043;-79
2023/07/19 10:07:42;;;;;;;3.00;1.20;;;30.80;41.80;;;;;;5033130;28;20447;-79
2023/07/19 10:10:19;;;;;;;4.20;1.80;;;30.90;41.60;;;;;;5049422;28;20477;-79
2023/07/19 10:12:49;;;;;;;1.60;1.23;;;31.00;41.60;;;;;;5032584;28;20451;-79
2023/07/19 10:15:18;;;;;;;2.40;1.57;;;31.00;41.20;;;;;;5032996;28;20474;-78
2023/07/19 10:17:58;;;;;;;2.27;1.40;;;31.00;41.50;;;;;;5031994;28;20558;-78
2023/07/19 10:20:28;;;;;;;1.70;1.20;;;31.20;41.20;;;;;;5031884;28;20439;-76
2023/07/19 10:22:57;;;;;;;1.73;1.20;;;31.20;41.00;;;;;;5034486;28;20546;-76
2023/07/19 10:25:27;;;;;;;1.23;1.10;;;31.10;40.70;;;;;;5031392;28;20937;-78
2023/07/19 10:27:56;;;;;;;1.30;0.93;;;31.10;40.50;;;;;;5034068;28;20459;-77
2023/07/19 10:30:45;;;;;;;0.93;0.93;;;31.20;40.40;;;;;;5034400;28;20562;-78
2023/07/19 10:33:15;;;;;;;1.10;1.00;;;31.40;40.20;;;;;;5038376;28;20446;-76
2023/07/19 10:35:44;;;;;;;2.37;1.13;;;31.40;39.90;;;;;;5034259;28;20497;-75
2023/07/19 10:38:16;;;;;;;1.40;1.00;;;31.50;40.20;;;;;;5034207;28;20463;-79
2023/07/19 10:40:45;;;;;;;1.67;1.03;;;31.50;40.30;;;;;;5050444;28;20515;-77
2023/07/19 10:43:13;;;;;;;1.63;1.07;;;31.50;40.00;;;;;;5034039;28;20481;-77
2023/07/19 10:45:42;;;;;;;1.20;0.93;;;31.40;39.90;;;;;;5034258;28;20515;-76
2023/07/19 10:48:11;;;;;;;1.63;1.40;;;31.40;40.10;;;;;;5033694;28;20535;-75
2023/07/19 10:50:41;;;;;;;2.73;1.17;;;31.40;40.20;;;;;;5041546;28;20533;-78
2023/07/19 10:53:09;;;;;;;6.30;1.20;;;31.30;40.10;;;;;;5033813;28;20969;-76
2023/07/19 10:55:37;;;;;;;1.63;1.20;;;31.50;40.20;;;;;;5050852;28;20439;-77
2023/07/19 10:58:21;;;;;;;1.80;0.83;;;31.60;40.20;;;;;;5033606;28;20459;-77
2023/07/19 11:00:49;;;;;;;1.10;0.90;;;31.60;40.20;;;;;;5046022;28;20485;-77
2023/07/19 11:03:17;;;;;;;1.80;1.10;;;31.60;40.00;;;;;;5053633;28;20459;-77
2023/07/19 11:05:48;;;;;;;1.67;1.30;;;31.60;40.20;;;;;;5053786;28;20437;-77
2023/07/19 11:08:22;;;;;;;1.13;1.13;;;31.70;40.20;;;;;;5047872;28;20512;-77
2023/07/19 11:10:50;;;;;;;1.20;1.20;;;31.80;39.70;;;;;;5041371;28;20506;-77
2023/07/19 11:13:18;;;;;;;1.20;1.20;;;31.80;39.60;;;;;;5041848;28;20526;-77
2023/07/19 11:15:49;;;;;;;3.43;1.40;;;31.70;39.70;;;;;;5033987;28;20542;-77
2023/07/19 11:18:24;;;;;;;1.70;1.60;;;31.50;39.90;;;;;;5034674;28;20455;-77
2023/07/19 11:20:54;;;;;;;3.77;1.30;;;31.30;40.20;;;;;;5044402;28;20515;-78
2023/07/19 11:23:22;;;;;;;2.20;1.50;;;31.10;40.50;;;;;;5034199;28;20436;-76
2023/07/19 11:25:50;;;;;;;2.30;1.90;;;30.90;40.80;;;;;;5041344;28;20464;-78
2023/07/19 11:28:36;;;;;;;1.73;1.63;;;30.70;40.90;;;;;;5033419;28;20493;-78
2023/07/19 11:31:05;;;;;;;2.33;2.00;;;30.60;41.30;;;;;;5033374;28;20557;-77
2023/07/19 11:33:36;;;;;;;1.70;1.60;;;30.50;41.70;;;;;;5034781;28;20473;-74
2023/07/19 11:36:08;;;;;;;2.13;1.93;;;30.50;42.00;;;;;;5046608;28;20522;-76
2023/07/19 11:38:37;;;;;;;6.27;2.20;;;31.30;42.00;;;;;;5053566;28;20489;-76
2023/07/19 11:41:06;;;;;;;8.73;1.80;;;31.40;41.30;;;;;;5044719;28;20534;-79
2023/07/19 11:43:34;;;;;;;3.03;1.73;;;31.50;40.90;;;;;;5036125;28;20506;-80
2023/07/19 11:46:02;;;;;;;3.17;1.80;;;31.80;41.30;;;;;;5044216;28;20478;-79
2023/07/19 11:48:30;;;;;;;3.00;1.57;;;32.20;40.40;;;;;;5050148;28;20465;-79
2023/07/19 11:50:58;;;;;;;2.00;1.87;;;32.10;39.80;;;;;;5051861;28;21059;-78
2023/07/19 11:53:28;;;;;;;2.53;1.70;;;32.00;40.10;;;;;;5036941;28;20440;-79
2023/07/19 11:55:56;;;;;;;1.80;1.70;;;31.80;40.40;;;;;;5044203;28;20525;-79
2023/07/19 11:58:27;;;;;;;1.70;1.60;;;31.80;40.50;;;;;;5046038;28;20551;-80
2023/07/19 12:01:12;;;;;;;2.03;1.80;;;31.50;40.70;;;;;;5053081;28;20530;-81
2023/07/19 12:03:42;;;;;;;2.43;1.50;;;31.40;41.20;;;;;;5051780;28;20447;-80
2023/07/19 12:06:10;;;;;;;2.20;1.83;;;31.30;42.00;;;;;;5047801;28;20455;-77
2023/07/19 12:08:40;;;;;;;1.80;1.70;;;31.10;41.80;;;;;;5050900;28;20474;-79
2023/07/19 12:11:09;;;;;;;1.60;1.50;;;31.00;42.10;;;;;;5049742;28;20494;-79
2023/07/19 12:13:37;;;;;;;1.53;1.43;;;30.80;42.20;;;;;;5039467;28;20454;-80
2023/07/19 12:16:06;;;;;;;2.70;1.60;;;30.70;42.90;;;;;;5050343;28;20530;-78
2023/07/19 12:18:34;;;;;;;2.43;2.23;;;30.60;43.20;;;;;;5048686;28;20532;-77
2023/07/19 12:21:06;;;;;;;2.37;2.17;;;30.60;43.40;;;;;;5050021;28;20431;-78
2023/07/19 12:23:36;;;;;;;2.83;2.33;;;30.60;43.70;;;;;;5037596;28;20448;-78
2023/07/19 12:26:10;;;;;;;2.30;2.10;;;30.80;44.40;;;;;;5050857;28;20438;-75
2023/07/19 12:28:38;;;;;;;2.10;2.00;;;31.30;43.60;;;;;;5047815;28;20533;-78
2023/07/19 12:31:08;;;;;;;3.13;1.90;;;31.80;42.40;;;;;;5046293;28;20923;-79
2023/07/19 12:33:35;;;;;;;4.43;1.80;;;32.30;42.60;;;;;;5051498;28;20439;-78
2023/07/19 12:36:04;;;;;;;2.73;1.50;;;32.50;42.00;;;;;;5051537;28;20550;-79
2023/07/19 12:38:33;;;;;;;2.40;1.80;;;33.00;40.40;;;;;;5048749;28;20463;-80
2023/07/19 12:41:02;;;;;;;2.43;2.23;;;32.60;40.70;;;;;;5042488;28;20515;-79
2023/07/19 12:43:32;;;;;;;5.50;2.00;;;32.20;41.70;;;;;;5052589;28;20446;-80
2023/07/19 12:46:00;;;;;;;1.93;1.77;;;31.80;42.40;;;;;;5050993;28;20451;-79
2023/07/19 12:48:29;;;;;;;4.93;2.33;;;31.60;43.00;;;;;;5040769;28;20566;-79
2023/07/19 12:50:57;;;;;;;4.00;2.00;;;31.40;43.50;;;;;;5041300;28;20860;-78
2023/07/19 12:53:27;;;;;;;5.70;2.70;;;31.30;43.80;;;;;;5053499;28;20431;-79
2023/07/19 12:55:56;;;;;;;2.60;2.47;;;31.20;44.00;;;;;;5054011;28;20581;-78
2023/07/19 12:58:24;;;;;;;2.40;2.20;;;31.10;44.20;;;;;;5045487;28;20501;-80
2023/07/19 13:00:54;;;;;;;2.83;2.60;;;31.00;44.40;;;;;;5042824;28;20466;-75